Time;durP1;ratioP1;P1;durP2;ratioP2;P2;SDS_P1;SDS_P2;PMS_P1;PMS_P2;Temp;Humidity;BMP_temperature;BMP_pressure;BME280_temperature;BME280_humidity;BME280_pressure;Samples;Min_cycle;Max_cycle;Signal;HPM_P1;HPM_P2
2022/09/26 02:08:26;;;;;;;41.33;20.35;;;;;;;;;;5076009;28;20278;-70
2022/09/26 02:11:02;;;;;;;34.83;20.15;;;;;;;;;;5079181;28;20081;-71
2022/09/26 02:13:30;;;;;;;20.55;12.98;;;;;;;;;;5079480;28;20035;-71
2022/09/26 02:15:59;;;;;;;17.05;11.73;;;;;;;;;;5097356;28;20062;-71
2022/09/26 02:18:37;;;;;;;14.38;11.60;;;;;;;;;;5079295;28;20032;-72
2022/09/26 02:21:09;;;;;;;14.05;11.13;;;;;;;;;;5078960;28;20032;-72
2022/09/26 02:23:34;;;;;;;13.00;10.55;;;;;;;;;;5097190;28;20023;-72
2022/09/26 02:26:00;;;;;;;15.57;11.25;;;;;;;;;;5078527;28;20385;-72
2022/09/26 02:28:25;;;;;;;17.75;12.48;;;;;;;;;;5078866;28;20485;-71
2022/09/26 02:30:52;;;;;;;18.80;13.50;;;;;;;;;;5078791;28;20019;-72
2022/09/26 02:33:17;;;;;;;14.85;12.18;;;;;;;;;;5087852;22;20052;-71
2022/09/26 02:35:56;;;;;;;13.75;11.07;;;;;;;;;;5022039;28;20035;-71
2022/09/26 02:38:26;;;;;;;14.73;11.48;;;;;;;;;;5022462;28;20033;-71
2022/09/26 02:41:21;;;;;;;11.38;9.57;;;;;;;;;;5040139;28;20056;-72
2022/09/26 02:44:05;;;;;;;12.45;9.90;;;;;;;;;;5021928;28;20171;-72
2022/09/26 02:46:50;;;;;;;11.02;9.85;;;;;;;;;;5021691;28;20036;-72
2022/09/26 02:49:34;;;;;;;10.48;9.13;;;;;;;;;;5038599;28;20048;-73
2022/09/26 02:52:16;;;;;;;13.68;9.90;;;;;;;;;;5038217;28;20082;-72
2022/09/26 02:54:56;;;;;;;11.15;9.70;;;;;;;;;;5038633;28;20044;-73
2022/09/26 02:57:22;;;;;;;;;;;;;;;;;;5039022;28;20052;-73
2022/09/26 02:59:48;;;;;;;12.77;10.30;;;;;;;;;;5038263;28;20371;-72
2022/09/26 03:02:19;;;;;;;12.93;10.45;;;;;;;;;;5037906;28;20052;-72
2022/09/26 03:05:09;;;;;;;24.70;13.50;;;;;;;;;;5038162;28;20029;-72
2022/09/26 03:07:46;;;;;;;15.73;9.98;;;;;;;;;;5055861;28;20043;-72
2022/09/26 03:10:13;;;;;;;11.68;9.80;;;;;;;;;;5037796;28;20036;-72
2022/09/26 03:12:40;;;;;;;11.70;9.43;;;;;;;;;;5038386;28;20462;-72
2022/09/26 03:15:07;;;;;;;13.50;10.73;;;;;;;;;;5038193;28;20029;-70
2022/09/26 03:17:34;;;;;;;15.35;11.10;;;;;;;;;;5054903;28;20099;-71
2022/09/26 03:20:04;;;;;;;18.38;13.88;;;;;;;;;;5039516;28;20025;-70
2022/09/26 03:22:30;;;;;;;15.02;11.93;;;;;;;;;;5037104;28;20116;-73
2022/09/26 03:24:59;;;;;;;18.33;14.43;;;;;;;;;;5037907;28;20115;-72
2022/09/26 03:27:26;;;;;;;23.90;18.25;;;;;;;;;;5037975;28;20029;-72
2022/09/26 03:29:58;;;;;;;16.63;11.48;;;;;;;;;;5055844;28;20036;-72
2022/09/26 03:32:24;;;;;;;13.50;10.38;;;;;;;;;;5037510;28;20118;-73
2022/09/26 03:34:50;;;;;;;17.05;11.18;;;;;;;;;;5055587;28;20075;-72
2022/09/26 03:37:16;;;;;;;19.48;13.93;;;;;;;;;;5037394;28;20064;-72
2022/09/26 03:39:42;;;;;;;51.45;37.10;;;;;;;;;;5055387;28;20106;-72
2022/09/26 03:42:16;;;;;;;56.83;36.03;;;;;;;;;;5055052;28;20029;-72
2022/09/26 03:44:44;;;;;;;85.32;53.00;;;;;;;;;;5036565;28;20025;-73
2022/09/26 03:47:28;;;;;;;18.48;14.73;;;;;;;;;;5055708;28;20067;-73
2022/09/26 03:49:53;;;;;;;13.20;10.00;;;;;;;;;;5037562;28;20056;-73
2022/09/26 03:52:20;;;;;;;12.15;9.85;;;;;;;;;;5037332;28;20021;-72
2022/09/26 03:54:47;;;;;;;13.15;10.43;;;;;;;;;;5036930;28;20036;-73
2022/09/26 03:57:14;;;;;;;13.70;10.30;;;;;;;;;;5037160;28;20532;-72
2022/09/26 03:59:54;;;;;;;21.88;15.27;;;;;;;;;;5037405;28;20395;-73
2022/09/26 04:02:21;;;;;;;109.65;69.53;;;;;;;;;;5036745;28;20025;-72
2022/09/26 04:04:53;;;;;;;25.40;17.85;;;;;;;;;;5037210;28;20021;-73
2022/09/26 04:07:19;;;;;;;13.18;10.35;;;;;;;;;;5054841;28;20040;-72
2022/09/26 04:09:45;;;;;;;12.70;10.02;;;;;;;;;;5020953;28;20013;-74
2022/09/26 04:12:11;;;;;;;15.18;11.02;;;;;;;;;;5037078;28;20115;-73
2022/09/26 04:14:42;;;;;;;15.57;11.85;;;;;;;;;;5035821;28;20009;-72
2022/09/26 04:17:08;;;;;;;18.45;12.52;;;;;;;;;;5036363;28;20025;-72
2022/09/26 04:19:40;;;;;;;17.38;12.23;;;;;;;;;;5035697;28;20025;-73
2022/09/26 04:22:07;;;;;;;19.15;12.98;;;;;;;;;;5053982;28;20032;-73
2022/09/26 04:24:32;;;;;;;31.75;23.83;;;;;;;;;;5035835;28;20013;-73
2022/09/26 04:26:59;;;;;;;26.95;20.90;;;;;;;;;;5035962;28;20088;-73
2022/09/26 04:29:26;;;;;;;26.13;19.20;;;;;;;;;;5036121;28;20099;-73
2022/09/26 04:32:09;;;;;;;34.25;25.98;;;;;;;;;;5035913;28;20082;-72
2022/09/26 04:34:51;;;;;;;41.58;31.08;;;;;;;;;;5035788;28;20438;-72
2022/09/26 04:37:17;;;;;;;34.00;24.35;;;;;;;;;;5035887;28;20063;-72
2022/09/26 04:39:42;;;;;;;31.52;19.58;;;;;;;;;;5035679;28;20021;-72
2022/09/26 04:42:08;;;;;;;36.63;21.95;;;;;;;;;;5035758;28;20078;-72
2022/09/26 04:44:34;;;;;;;71.32;40.42;;;;;;;;;;5035728;28;20352;-72
2022/09/26 04:46:59;;;;;;;31.90;21.02;;;;;;;;;;5053177;28;20033;-71
2022/09/26 04:49:40;;;;;;;41.08;24.40;;;;;;;;;;5035442;28;20070;-71
2022/09/26 04:52:06;;;;;;;15.13;12.82;;;;;;;;;;5035158;28;20033;-71
2022/09/26 04:54:31;;;;;;;36.70;21.77;;;;;;;;;;5034882;28;20053;-71
2022/09/26 04:56:58;;;;;;;20.95;14.38;;;;;;;;;;5034798;28;20040;-71
2022/09/26 04:59:23;;;;;;;43.78;25.60;;;;;;;;;;5035249;28;20029;-71
2022/09/26 05:01:56;;;;;;;22.23;16.05;;;;;;;;;;5054180;28;20423;-72
2022/09/26 05:04:27;;;;;;;17.92;13.10;;;;;;;;;;5026638;28;20399;-70
2022/09/26 05:06:56;;;;;;;20.25;14.63;;;;;;;;;;5030581;28;20426;-70
2022/09/26 05:09:26;;;;;;;26.90;17.85;;;;;;;;;;5015010;28;20021;-73
2022/09/26 05:11:58;;;;;;;18.67;15.35;;;;;;;;;;5031381;28;20033;-73
2022/09/26 05:14:24;;;;;;;15.95;13.05;;;;;;;;;;5032513;28;20087;-72
2022/09/26 05:16:50;;;;;;;17.08;12.82;;;;;;;;;;5032503;28;20021;-73
2022/09/26 05:19:16;;;;;;;17.88;14.10;;;;;;;;;;5030881;28;20476;-72
2022/09/26 05:21:58;;;;;;;39.78;25.55;;;;;;;;;;5014422;28;20391;-71
2022/09/26 05:27:08;;;;;;;20.08;16.13;;;;;;;;;;5031011;28;20395;-71
2022/09/26 05:29:33;;;;;;;17.60;15.07;;;;;;;;;;5032531;28;20013;-72
2022/09/26 05:32:04;;;;;;;19.48;15.38;;;;;;;;;;5031060;28;20029;-74
2022/09/26 05:34:34;;;;;;;16.90;15.10;;;;;;;;;;5030905;28;20037;-72
2022/09/26 05:37:00;;;;;;;18.10;14.45;;;;;;;;;;5031006;28;20464;-72
2022/09/26 05:42:12;;;;;;;18.45;13.60;;;;;;;;;;5031173;28;20044;-73
2022/09/26 05:44:38;;;;;;;17.40;13.65;;;;;;;;;;5014516;28;20021;-73
2022/09/26 05:47:04;;;;;;;15.77;13.23;;;;;;;;;;5030836;28;20666;-73
2022/09/26 05:49:31;;;;;;;16.15;13.35;;;;;;;;;;5031054;28;20022;-72
2022/09/26 05:51:57;;;;;;;16.52;13.45;;;;;;;;;;5030966;28;20480;-72
2022/09/26 05:54:23;;;;;;;15.95;12.77;;;;;;;;;;5031843;28;20041;-73
2022/09/26 05:56:50;;;;;;;16.58;13.30;;;;;;;;;;5030931;28;20091;-72
2022/09/26 05:59:24;;;;;;;17.30;14.65;;;;;;;;;;5032051;28;20029;-72
2022/09/26 06:02:16;;;;;;;19.75;15.23;;;;;;;;;;5020828;28;20495;-72
2022/09/26 06:05:02;;;;;;;27.60;20.40;;;;;;;;;;5031535;28;20050;-72
2022/09/26 06:07:44;;;;;;;21.45;17.02;;;;;;;;;;5030714;28;20499;-72
2022/09/26 06:10:15;;;;;;;20.55;16.60;;;;;;;;;;5033577;28;20049;-72
2022/09/26 06:13:00;;;;;;;20.10;15.75;;;;;;;;;;5035671;28;20061;-72
2022/09/26 06:15:25;;;;;;;17.95;15.73;;;;;;;;;;5034460;28;20337;-73
2022/09/26 06:18:00;;;;;;;18.13;15.25;;;;;;;;;;5034004;28;20068;-73
2022/09/26 06:20:26;;;;;;;19.48;15.73;;;;;;;;;;5035544;28;20030;-73
2022/09/26 06:22:53;;;;;;;21.63;16.27;;;;;;;;;;5034247;28;20037;-72
2022/09/26 06:25:19;;;;;;;16.98;14.15;;;;;;;;;;5034102;28;20030;-73
2022/09/26 06:27:44;;;;;;;17.08;14.45;;;;;;;;;;5035109;28;20025;-73
2022/09/26 06:30:09;;;;;;;17.80;15.55;;;;;;;;;;5033999;28;20026;-73
2022/09/26 06:32:38;;;;;;;19.27;16.00;;;;;;;;;;5033906;28;20049;-72
2022/09/26 06:35:18;;;;;;;19.05;15.70;;;;;;;;;;5034280;28;20021;-73
2022/09/26 06:37:59;;;;;;;18.95;15.45;;;;;;;;;;5036074;28;20030;-72
2022/09/26 06:40:24;;;;;;;17.83;14.85;;;;;;;;;;5034935;28;20021;-73
2022/09/26 06:42:49;;;;;;;19.23;15.90;;;;;;;;;;5034978;28;20380;-72
2022/09/26 06:45:30;;;;;;;18.67;14.65;;;;;;;;;;5034867;28;20142;-73
2022/09/26 06:48:17;;;;;;;17.95;14.82;;;;;;;;;;5034804;28;20028;-73
2022/09/26 06:51:02;;;;;;;20.48;16.80;;;;;;;;;;5036330;28;20399;-73
2022/09/26 06:53:29;;;;;;;18.30;15.25;;;;;;;;;;5033032;28;20025;-73
2022/09/26 06:55:57;;;;;;;14.98;13.38;;;;;;;;;;5018140;28;20155;-73
2022/09/26 06:58:23;;;;;;;15.02;12.98;;;;;;;;;;5034570;28;20368;-72
2022/09/26 07:01:14;;;;;;;16.13;13.68;;;;;;;;;;5033631;28;20038;-72
2022/09/26 07:03:40;;;;;;;17.40;13.70;;;;;;;;;;5035762;28;20030;-71
2022/09/26 07:06:21;;;;;;;18.95;14.07;;;;;;;;;;5034432;28;20028;-71
2022/09/26 07:08:50;;;;;;;15.10;13.50;;;;;;;;;;5034570;28;20108;-72
2022/09/26 07:11:18;;;;;;;16.13;13.30;;;;;;;;;;5018167;28;20084;-71
2022/09/26 07:13:44;;;;;;;17.60;12.70;;;;;;;;;;5035606;28;20029;-71
2022/09/26 07:18:58;;;;;;;15.65;13.75;;;;;;;;;;5012490;28;20125;-72
2022/09/26 07:21:50;;;;;;;14.63;12.93;;;;;;;;;;4994946;28;20046;-72
2022/09/26 07:24:26;;;;;;;14.57;13.02;;;;;;;;;;5015681;28;20022;-72
2022/09/26 07:26:51;;;;;;;15.15;13.60;;;;;;;;;;5014231;28;20048;-73
2022/09/26 07:29:17;;;;;;;16.63;13.07;;;;;;;;;;5015530;28;20024;-72
2022/09/26 07:31:43;;;;;;;16.50;12.88;;;;;;;;;;5014223;28;20030;-72
2022/09/26 07:34:15;;;;;;;15.27;13.15;;;;;;;;;;5014175;28;20021;-72
2022/09/26 07:36:41;;;;;;;16.60;13.57;;;;;;;;;;5014140;28;20088;-73
2022/09/26 07:39:08;;;;;;;16.23;13.00;;;;;;;;;;5014049;28;20049;-72
2022/09/26 07:41:34;;;;;;;17.80;13.05;;;;;;;;;;5014006;28;20080;-72
2022/09/26 07:43:59;;;;;;;15.63;12.43;;;;;;;;;;4981527;28;20018;-72
2022/09/26 07:52:33;;;;;;;20.75;15.93;;;;;;;;;;4999359;28;20065;-72
2022/09/26 07:55:31;;;;;;;15.02;12.73;;;;;;;;;;4982079;28;20099;-72
2022/09/26 07:57:56;;;;;;;22.90;17.45;;;;;;;;;;4997846;28;20038;-72
2022/09/26 08:00:29;;;;;;;18.40;13.10;;;;;;;;;;5015030;28;20017;-73
2022/09/26 08:03:03;;;;;;;21.65;15.55;;;;;;;;;;4997404;28;20037;-72
2022/09/26 08:05:30;;;;;;;38.80;22.00;;;;;;;;;;4997324;28;20042;-72
2022/09/26 08:07:56;;;;;;;33.42;20.17;;;;;;;;;;5013667;28;20018;-72
2022/09/26 08:10:56;;;;;;;33.03;21.20;;;;;;;;;;4954423;29;20038;-71
2022/09/26 08:13:31;;;;;;;19.00;15.30;;;;;;;;;;5006001;28;20138;-71
2022/09/26 08:16:18;;;;;;;13.13;11.70;;;;;;;;;;5014878;28;20052;-70
2022/09/26 08:18:45;;;;;;;13.43;11.68;;;;;;;;;;5009954;28;20042;-71
2022/09/26 08:21:10;;;;;;;12.85;11.43;;;;;;;;;;4993748;28;20365;-72
2022/09/26 08:23:36;;;;;;;11.93;10.68;;;;;;;;;;4993680;28;20497;-70
2022/09/26 08:26:22;;;;;;;12.20;10.90;;;;;;;;;;4990843;28;20042;-72
2022/09/26 08:28:53;;;;;;;13.70;11.52;;;;;;;;;;5010043;28;20027;-70
2022/09/26 08:31:19;;;;;;;11.90;10.70;;;;;;;;;;5009366;28;20032;-70
2022/09/26 08:33:46;;;;;;;12.80;11.02;;;;;;;;;;4993553;28;20026;-71
2022/09/26 08:36:14;;;;;;;12.05;10.73;;;;;;;;;;5009865;28;20040;-71
2022/09/26 08:38:55;;;;;;;11.10;9.27;;;;;;;;;;4993422;28;20023;-71
2022/09/26 08:41:59;;;;;;;11.13;9.85;;;;;;;;;;4993823;28;20131;-71
2022/09/26 08:44:54;;;;;;;13.38;9.85;;;;;;;;;;4985649;28;20070;-71
2022/09/26 08:47:48;;;;;;;11.90;9.27;;;;;;;;;;4992344;28;20029;-71
2022/09/26 08:50:40;;;;;;;8.00;7.20;;;;;;;;;;5008761;28;20033;-71
2022/09/26 08:53:21;;;;;;;8.93;8.02;;;;;;;;;;4991935;28;20030;-71
2022/09/26 08:55:55;;;;;;;8.43;7.30;;;;;;;;;;4993565;28;20027;-71
2022/09/26 08:58:30;;;;;;;9.10;7.93;;;;;;;;;;5008504;28;20030;-71
2022/09/26 09:01:01;;;;;;;7.82;7.13;;;;;;;;;;4992285;28;20037;-71
2022/09/26 09:03:31;;;;;;;8.65;7.57;;;;;;;;;;5008565;28;20037;-71
2022/09/26 09:06:03;;;;;;;8.90;7.30;;;;;;;;;;4992121;28;20046;-72
2022/09/26 09:08:34;;;;;;;6.57;5.97;;;;;;;;;;4992208;28;20165;-72
2022/09/26 09:11:36;;;;;;;9.82;6.93;;;;;;;;;;5008559;28;20057;-71
2022/09/26 09:14:01;;;;;;;8.00;7.25;;;;;;;;;;5008577;28;20385;-72
2022/09/26 09:16:54;;;;;;;8.57;7.65;;;;;;;;;;4996508;28;20061;-71
2022/09/26 09:20:00;;;;;;;9.52;8.55;;;;;;;;;;5011697;28;20049;-71
2022/09/26 09:22:51;;;;;;;9.88;8.32;;;;;;;;;;5012944;28;20119;-71
2022/09/26 09:25:38;;;;;;;11.15;8.95;;;;;;;;;;5012542;28;20041;-71
2022/09/26 09:28:09;;;;;;;8.18;7.40;;;;;;;;;;5012800;28;20431;-72
2022/09/26 09:30:40;;;;;;;9.30;7.68;;;;;;;;;;5012611;28;20377;-72
2022/09/26 09:33:32;;;;;;;7.80;6.43;;;;;;;;;;5011326;28;20069;-72
2022/09/26 09:36:14;;;;;;;8.32;6.97;;;;;;;;;;5011248;28;20033;-72
2022/09/26 09:39:05;;;;;;;9.57;7.63;;;;;;;;;;5012271;28;20179;-72
2022/09/26 09:42:19;;;;;;;9.32;8.35;;;;;;;;;;5007549;28;20285;-73
2022/09/26 09:45:03;;;;;;;8.68;6.85;;;;;;;;;;4982568;28;20030;-72
2022/09/26 09:47:31;;;;;;;6.55;5.95;;;;;;;;;;5014991;28;20057;-72
2022/09/26 09:49:58;;;;;;;7.50;6.90;;;;;;;;;;5016320;28;20419;-73
2022/09/26 09:52:53;;;;;;;7.25;5.82;;;;;;;;;;4982416;28;20120;-72
2022/09/26 09:55:34;;;;;;;8.05;7.10;;;;;;;;;;4981765;28;20045;-72
2022/09/26 09:57:59;;;;;;;6.60;6.00;;;;;;;;;;5015231;28;20112;-73
2022/09/26 10:00:26;;;;;;;6.93;6.22;;;;;;;;;;5014898;28;20441;-72
2022/09/26 10:03:13;;;;;;;6.57;5.97;;;;;;;;;;5014463;28;20026;-72
2022/09/26 10:05:46;;;;;;;6.22;5.70;;;;;;;;;;5014719;28;20036;-72
2022/09/26 10:08:26;;;;;;;6.40;5.88;;;;;;;;;;5014734;28;20369;-72
2022/09/26 10:11:22;;;;;;;6.60;5.95;;;;;;;;;;5016151;28;20116;-72
2022/09/26 10:13:57;;;;;;;6.10;5.57;;;;;;;;;;4998925;28;20388;-72
2022/09/26 10:17:00;;;;;;;5.38;4.88;;;;;;;;;;5015465;28;20045;-72
2022/09/26 10:19:32;;;;;;;5.95;3.88;;;;;;;;;;4998154;28;20058;-73
2022/09/26 10:21:58;;;;;;;3.90;3.60;;;;;;;;;;4998102;28;20034;-72
2022/09/26 10:24:39;;;;;;;4.43;4.03;;;;;;;;;;5016092;28;20025;-72
2022/09/26 10:27:13;;;;;;;3.17;2.97;;;;;;;;;;4997989;28;20034;-72
2022/09/26 10:29:42;;;;;;;3.10;2.90;;;;;;;;;;5014268;28;20484;-72
2022/09/26 10:32:09;;;;;;;3.15;2.95;;;;;;;;;;5014599;28;20388;-71
2022/09/26 10:34:38;;;;;;;4.35;3.90;;;;;;;;;;4998301;28;20037;-72
2022/09/26 10:37:22;;;;;;;4.78;4.38;;;;;;;;;;5014491;28;20068;-72
2022/09/26 10:42:39;;;;;;;4.50;4.20;;;;;;;;;;4997256;28;20034;-72
2022/09/26 10:45:12;;;;;;;4.32;4.03;;;;;;;;;;4997415;28;20385;-72
2022/09/26 10:47:58;;;;;;;5.70;3.90;;;;;;;;;;5015584;28;20117;-72
2022/09/26 10:50:50;;;;;;;5.43;4.57;;;;;;;;;;5015090;28;20033;-72
2022/09/26 10:53:39;;;;;;;4.88;4.38;;;;;;;;;;4996655;28;20030;-72
2022/09/26 10:56:12;;;;;;;3.40;3.20;;;;;;;;;;5014034;28;20033;-72
2022/09/26 10:58:39;;;;;;;4.00;3.60;;;;;;;;;;4997485;28;20037;-72
2022/09/26 11:01:06;;;;;;;5.10;3.53;;;;;;;;;;4997239;28;20022;-71
2022/09/26 11:03:42;;;;;;;3.22;3.03;;;;;;;;;;5013925;28;20030;-72
2022/09/26 11:06:35;;;;;;;3.85;3.58;;;;;;;;;;5005935;28;20042;-72
2022/09/26 11:09:17;;;;;;;4.85;4.00;;;;;;;;;;5014308;28;20392;-71
2022/09/26 11:12:38;;;;;;;3.45;3.25;;;;;;;;;;5015091;28;20084;-72
2022/09/26 11:15:09;;;;;;;3.22;3.03;;;;;;;;;;4959523;28;20033;-72
2022/09/26 11:17:43;;;;;;;3.50;3.20;;;;;;;;;;5009722;28;20519;-72
2022/09/26 11:20:11;;;;;;;7.15;4.63;;;;;;;;;;4993871;28;20030;-69
2022/09/26 11:22:39;;;;;;;3.53;3.33;;;;;;;;;;5010184;28;20018;-71
2022/09/26 11:25:07;;;;;;;3.75;3.42;;;;;;;;;;5010356;28;20503;-70
2022/09/26 11:27:37;;;;;;;3.67;3.38;;;;;;;;;;4993647;28;20026;-70
2022/09/26 11:30:12;;;;;;;3.53;3.28;;;;;;;;;;5010332;28;20044;-70
2022/09/26 11:32:43;;;;;;;3.20;3.00;;;;;;;;;;4993618;28;20030;-71
2022/09/26 11:35:38;;;;;;;3.25;3.05;;;;;;;;;;4994804;28;20552;-71
2022/09/26 11:38:22;;;;;;;3.13;2.83;;;;;;;;;;4993508;28;20037;-70
2022/09/26 11:40:48;;;;;;;3.30;2.65;;;;;;;;;;5009882;28;20402;-70
2022/09/26 11:43:21;;;;;;;3.50;3.25;;;;;;;;;;4993581;28;20105;-69
2022/09/26 11:46:13;;;;;;;4.25;3.78;;;;;;;;;;4993187;28;20045;-71
2022/09/26 11:49:17;;;;;;;3.80;3.45;;;;;;;;;;4994738;28;20114;-71
2022/09/26 11:52:02;;;;;;;3.90;3.45;;;;;;;;;;4994285;28;20041;-70
2022/09/26 11:54:40;;;;;;;4.15;3.75;;;;;;;;;;4994423;28;20034;-70
2022/09/26 11:57:12;;;;;;;5.30;4.70;;;;;;;;;;5009560;28;20038;-70
2022/09/26 11:59:58;;;;;;;5.65;3.70;;;;;;;;;;4994356;28;20026;-71
2022/09/26 12:02:36;;;;;;;4.78;4.35;;;;;;;;;;4993734;28;20505;-70
2022/09/26 12:05:23;;;;;;;4.43;4.05;;;;;;;;;;5009114;28;20026;-69
2022/09/26 12:07:58;;;;;;;5.15;4.75;;;;;;;;;;4992917;28;20509;-71
2022/09/26 12:10:24;;;;;;;6.75;5.05;;;;;;;;;;5008874;28;20069;-70
2022/09/26 12:13:00;;;;;;;7.50;5.80;;;;;;;;;;4993448;28;20054;-70
2022/09/26 12:15:37;;;;;;;6.03;4.78;;;;;;;;;;4993304;28;20038;-71
2022/09/26 12:18:36;;;;;;;5.32;4.15;;;;;;;;;;5007073;28;20050;-70
2022/09/26 12:21:05;;;;;;;4.88;4.53;;;;;;;;;;4969760;28;20053;-70
2022/09/26 12:23:35;;;;;;;5.07;4.55;;;;;;;;;;4995147;28;20036;-70
2022/09/26 12:26:00;;;;;;;5.45;4.95;;;;;;;;;;5012627;28;20132;-70
2022/09/26 12:28:34;;;;;;;5.32;4.82;;;;;;;;;;5012945;28;20106;-71
2022/09/26 12:30:59;;;;;;;6.63;5.63;;;;;;;;;;5012805;28;20030;-71
2022/09/26 12:33:44;;;;;;;7.72;4.55;;;;;;;;;;4995473;28;20018;-70
2022/09/26 12:36:20;;;;;;;4.15;3.88;;;;;;;;;;5013128;28;20033;-70
2022/09/26 12:39:04;;;;;;;4.07;3.78;;;;;;;;;;5013279;28;20026;-69
2022/09/26 12:41:50;;;;;;;6.25;4.40;;;;;;;;;;5014098;28;20119;-71
2022/09/26 12:44:23;;;;;;;6.72;5.28;;;;;;;;;;5014040;28;20365;-71
2022/09/26 12:46:54;;;;;;;8.65;5.85;;;;;;;;;;5013838;28;20124;-69
2022/09/26 12:49:38;;;;;;;5.85;5.30;;;;;;;;;;4996412;28;20072;-70
2022/09/26 12:52:22;;;;;;;8.80;7.55;;;;;;;;;;5031026;22;20072;-71
2022/09/26 12:55:06;;;;;;;7.80;7.03;;;;;;;;;;5034372;28;20022;-70
2022/09/26 12:57:50;;;;;;;4.63;4.22;;;;;;;;;;5016499;28;20468;-70
2022/09/26 13:00:19;;;;;;;5.32;4.35;;;;;;;;;;5031634;28;20446;-70
2022/09/26 13:02:54;;;;;;;5.10;4.68;;;;;;;;;;5033833;28;20045;-71
2022/09/26 13:05:22;;;;;;;5.03;4.60;;;;;;;;;;5032394;28;20029;-71
2022/09/26 13:08:07;;;;;;;5.50;4.65;;;;;;;;;;5033759;28;20438;-69
2022/09/26 13:10:32;;;;;;;7.57;5.93;;;;;;;;;;5033578;28;20590;-71
2022/09/26 13:12:57;;;;;;;5.70;4.90;;;;;;;;;;5033632;28;20030;-70
2022/09/26 13:15:29;;;;;;;6.00;4.63;;;;;;;;;;5033959;28;20392;-71
2022/09/26 13:18:07;;;;;;;5.55;4.78;;;;;;;;;;5033830;28;20037;-70
2022/09/26 13:20:54;;;;;;;4.95;4.40;;;;;;;;;;5032877;28;20029;-70
2022/09/26 13:23:26;;;;;;;4.57;4.18;;;;;;;;;;5032949;28;20508;-71
2022/09/26 13:25:54;;;;;;;4.93;4.07;;;;;;;;;;5033378;28;20061;-70
2022/09/26 13:28:45;;;;;;;5.65;5.15;;;;;;;;;;5031303;28;20452;-71
2022/09/26 13:31:17;;;;;;;;;;;;;;;;;;5020711;28;20116;-71
2022/09/26 13:34:00;;;;;;;4.38;4.07;;;;;;;;;;5032122;28;19913;-70
2022/09/26 13:36:26;;;;;;;4.70;4.22;;;;;;;;;;5031790;28;20041;-70
2022/09/26 13:39:01;;;;;;;6.22;4.85;;;;;;;;;;5031487;28;20490;-70
2022/09/26 13:41:31;;;;;;;6.40;5.63;;;;;;;;;;5032328;28;20464;-71
2022/09/26 13:43:56;;;;;;;5.93;4.90;;;;;;;;;;5032336;28;20113;-69
2022/09/26 13:46:39;;;;;;;4.43;3.83;;;;;;;;;;5032163;28;20104;-71
2022/09/26 13:49:14;;;;;;;6.05;4.90;;;;;;;;;;5031979;28;20028;-71
2022/09/26 13:51:47;;;;;;;5.25;4.00;;;;;;;;;;5032023;28;20030;-70
2022/09/26 13:54:51;;;;;;;4.88;4.45;;;;;;;;;;5032155;28;20507;-70
2022/09/26 13:57:36;;;;;;;3.65;3.28;;;;;;;;;;4932453;29;20040;-71
2022/09/26 14:00:15;;;;;;;3.75;3.38;;;;;;;;;;4933354;29;20036;-70
2022/09/26 14:02:41;;;;;;;3.28;2.97;;;;;;;;;;5002647;28;20052;-71
2022/09/26 14:05:12;;;;;;;4.05;3.75;;;;;;;;;;5033155;28;20017;-72
2022/09/26 14:10:21;;;;;;;7.03;4.03;;;;;;;;;;5033504;28;20033;-73
2022/09/26 14:12:50;;;;;;;6.43;4.15;;;;;;;;;;5015981;28;20075;-72
2022/09/26 14:15:15;;;;;;;3.63;3.30;;;;;;;;;;5033405;28;20025;-72
2022/09/26 14:17:41;;;;;;;4.75;4.30;;;;;;;;;;5032579;28;20471;-72
2022/09/26 14:20:14;;;;;;;4.68;4.25;;;;;;;;;;5031354;28;20371;-72
2022/09/26 14:22:48;;;;;;;9.85;5.65;;;;;;;;;;5032925;28;20494;-72
2022/09/26 14:25:32;;;;;;;5.13;4.63;;;;;;;;;;5032908;28;20034;-72
2022/09/26 14:28:07;;;;;;;5.28;4.07;;;;;;;;;;5033034;28;20041;-69
2022/09/26 14:30:35;;;;;;;3.92;3.58;;;;;;;;;;5035193;28;20041;-71
2022/09/26 14:33:05;;;;;;;13.52;8.02;;;;;;;;;;5036521;28;20491;-70
2022/09/26 14:35:30;;;;;;;;;;;;;;;;;;5036815;28;20038;-70
2022/09/26 14:38:07;;;;;;;3.80;3.28;;;;;;;;;;5036618;28;19920;-70
2022/09/26 14:40:35;;;;;;;3.53;3.22;;;;;;;;;;5036303;28;20087;-71
2022/09/26 14:43:11;;;;;;;3.67;3.38;;;;;;;;;;5036248;28;20013;-70
2022/09/26 14:45:37;;;;;;;3.88;3.58;;;;;;;;;;5036105;28;20049;-70
2022/09/26 14:48:02;;;;;;;3.53;3.25;;;;;;;;;;5036160;28;20429;-70
2022/09/26 14:50:35;;;;;;;5.28;4.80;;;;;;;;;;5036160;28;20041;-69
2022/09/26 14:53:19;;;;;;;8.80;6.40;;;;;;;;;;5035943;28;20113;-70
2022/09/26 14:55:58;;;;;;;4.15;3.83;;;;;;;;;;5035991;28;20032;-71
2022/09/26 14:58:30;;;;;;;4.70;4.30;;;;;;;;;;5034808;28;20021;-71
2022/09/26 15:01:00;;;;;;;5.15;4.70;;;;;;;;;;5035902;28;20025;-71
2022/09/26 15:03:26;;;;;;;5.68;5.13;;;;;;;;;;5035835;28;20483;-69
2022/09/26 15:05:51;;;;;;;10.48;7.38;;;;;;;;;;5017974;28;20033;-71
2022/09/26 15:08:29;;;;;;;7.85;5.93;;;;;;;;;;5035732;28;20034;-71
2022/09/26 15:10:58;;;;;;;9.30;5.53;;;;;;;;;;5035786;28;20044;-71
2022/09/26 15:13:37;;;;;;;6.57;5.50;;;;;;;;;;5035645;28;20405;-72
2022/09/26 15:16:22;;;;;;;8.32;6.25;;;;;;;;;;5035655;28;20048;-71
2022/09/26 15:18:50;;;;;;;4.55;4.22;;;;;;;;;;5017752;28;20120;-72
2022/09/26 15:21:16;;;;;;;7.57;5.30;;;;;;;;;;5034854;28;20056;-71
2022/09/26 15:23:49;;;;;;;5.65;4.85;;;;;;;;;;5034360;28;20057;-72
2022/09/26 15:26:16;;;;;;;15.90;8.57;;;;;;;;;;5034237;28;20467;-72
2022/09/26 15:28:45;;;;;;;13.93;9.07;;;;;;;;;;5034322;28;20017;-71
2022/09/26 15:31:19;;;;;;;10.52;7.65;;;;;;;;;;5034309;28;20022;-72
2022/09/26 15:33:46;;;;;;;5.35;4.65;;;;;;;;;;5032972;28;20065;-71
2022/09/26 15:36:15;;;;;;;5.55;4.13;;;;;;;;;;5032775;28;20461;-71
2022/09/26 15:38:41;;;;;;;6.47;5.07;;;;;;;;;;5034142;28;20116;-70
2022/09/26 15:41:12;;;;;;;5.90;5.40;;;;;;;;;;5034015;28;20109;-71
2022/09/26 15:43:37;;;;;;;6.90;6.20;;;;;;;;;;5005573;28;20040;-72
2022/09/26 15:46:17;;;;;;;6.75;5.70;;;;;;;;;;5030826;28;20017;-71
2022/09/26 15:48:42;;;;;;;6.07;5.57;;;;;;;;;;5030179;28;20033;-70
2022/09/26 15:51:22;;;;;;;9.00;7.28;;;;;;;;;;5012257;28;20064;-69
2022/09/26 15:53:54;;;;;;;10.80;8.40;;;;;;;;;;5030223;28;20033;-69
2022/09/26 15:56:19;;;;;;;11.80;8.75;;;;;;;;;;5033348;28;20044;-70
2022/09/26 15:58:56;;;;;;;14.05;10.02;;;;;;;;;;5034792;28;20380;-69
2022/09/26 16:01:24;;;;;;;14.23;10.63;;;;;;;;;;5034450;28;20025;-70
2022/09/26 16:03:57;;;;;;;12.52;9.13;;;;;;;;;;5032729;28;20048;-69
2022/09/26 16:06:46;;;;;;;9.63;7.85;;;;;;;;;;5031393;28;20041;-70
2022/09/26 16:09:20;;;;;;;12.45;7.63;;;;;;;;;;5020288;28;20034;-70
2022/09/26 16:11:57;;;;;;;9.15;7.13;;;;;;;;;;5033822;28;20029;-70
2022/09/26 16:14:40;;;;;;;8.23;6.97;;;;;;;;;;5033899;28;20108;-69
2022/09/26 16:17:11;;;;;;;8.07;7.05;;;;;;;;;;5034086;28;20037;-70
2022/09/26 16:19:42;;;;;;;11.50;7.88;;;;;;;;;;5033303;28;20025;-69
2022/09/26 16:22:27;;;;;;;8.20;6.45;;;;;;;;;;5032286;28;20057;-69
2022/09/26 16:24:52;;;;;;;7.05;6.35;;;;;;;;;;5032445;28;20184;-69
2022/09/26 16:27:32;;;;;;;10.02;6.85;;;;;;;;;;5033173;28;20129;-69
2022/09/26 16:29:57;;;;;;;11.77;9.00;;;;;;;;;;5033722;28;20034;-69
2022/09/26 16:32:23;;;;;;;49.25;21.70;;;;;;;;;;5016191;28;20020;-70
2022/09/26 16:34:49;;;;;;;14.00;8.50;;;;;;;;;;5033820;28;20388;-70
2022/09/26 16:37:18;;;;;;;29.25;17.35;;;;;;;;;;5034011;28;20019;-70
2022/09/26 16:39:52;;;;;;;68.40;34.88;;;;;;;;;;5034111;28;20037;-70
2022/09/26 16:42:19;;;;;;;32.80;17.95;;;;;;;;;;5034005;28;20379;-70
2022/09/26 16:44:53;;;;;;;11.00;7.57;;;;;;;;;;5033915;28;20034;-70
2022/09/26 16:47:32;;;;;;;5.03;4.50;;;;;;;;;;5032168;28;20427;-69
2022/09/26 16:50:16;;;;;;;5.40;4.90;;;;;;;;;;5015998;28;20042;-69
2022/09/26 16:52:44;;;;;;;7.65;5.28;;;;;;;;;;5033336;28;20041;-69
2022/09/26 16:55:10;;;;;;;15.93;7.30;;;;;;;;;;5033679;28;20110;-70
2022/09/26 16:57:36;;;;;;;21.55;10.60;;;;;;;;;;5033770;28;20424;-70
2022/09/26 17:03:37;;;;;;;28.45;13.05;;;;;;;;;;5033816;28;20042;-71
2022/09/26 17:06:02;;;;;;;27.05;9.98;;;;;;;;;;5013700;28;20048;-72
2022/09/26 17:08:28;;;;;;;35.00;14.43;;;;;;;;;;5033690;28;20022;-72
2022/09/26 17:10:55;;;;;;;33.08;14.13;;;;;;;;;;5033597;28;20025;-72
2022/09/26 17:13:21;;;;;;;66.53;31.15;;;;;;;;;;5033719;28;20045;-72
2022/09/26 17:15:48;;;;;;;49.83;19.85;;;;;;;;;;5033569;28;20030;-71
2022/09/26 17:18:15;;;;;;;44.95;18.70;;;;;;;;;;5033553;28;20048;-71
2022/09/26 17:20:43;;;;;;;48.40;24.02;;;;;;;;;;5032533;28;20033;-71
2022/09/26 17:23:10;;;;;;;33.22;16.00;;;;;;;;;;5033603;28;20025;-72
2022/09/26 17:25:35;;;;;;;25.80;11.55;;;;;;;;;;5024735;28;20025;-71
2022/09/26 17:28:01;;;;;;;15.27;8.18;;;;;;;;;;5029801;28;20071;-72
2022/09/26 17:30:27;;;;;;;10.90;6.47;;;;;;;;;;5028385;28;20391;-72
2022/09/26 17:32:53;;;;;;;5.63;4.85;;;;;;;;;;5027108;28;20026;-72
2022/09/26 17:35:23;;;;;;;5.78;4.90;;;;;;;;;;5028296;28;20087;-71
2022/09/26 17:37:50;;;;;;;6.35;4.05;;;;;;;;;;5028648;28;20362;-72
2022/09/26 17:40:18;;;;;;;5.15;4.60;;;;;;;;;;5028663;28;20061;-71